Select your language:
Online Marketing Agentur sucht Gipfelstürmer   Bad Gastein Ultraks   UTAT Ultra-Trail-Atlas-Toubcal  
  AK:   Land:   Ø Geschw.:   AK-Wertung:   
Datum: 24.02.2012 Send Link
Veranstaltung: 3rd Rocky Road 50 Mile Run (USA) Mehr Details zum Lauf.
Strecke: 50mi Landschaftslauf/Trail Ewige Bestenliste dieser Veranstaltung.
Finisher: 48 (34 M, 14 W) Mehrfach-Finisher.
Bestenlisten-tauglich: Nein
Ergebnisliste von: Link (Quelle zum Zeitpunkt der Erfassung.)
Erfassung durch: Andreas Knop     09.03.2012 18:48
 
48 Suchergebnisse
Gesamt- Rang Leistung Nachname, Vorname Verein Nat. Jg. M/W Rang M/W AK AK Rang Ø Geschw. km/h alters- korrigierte Leistung
1 8:19:56 h   Hall, Larry *Chicago, IL   USA  1954 M 1 M55  1 9.657 7:00:48 h
2 8:24:42 h   McRae, Sally *Aliso Viejo, CA   USA  1979 W 1 W23  1 9.566 8:24:09 h
3 8:53:34 h   Lambert, Graham *Tustin, CA   USA  1967 M 2 M40  1 9.049 8:23:03 h
4 9:08:46 h   Blomgren, Peter *La Mesa, CA   USA  1971 M 3 M40  2 8.798 8:53:41 h
5 9:12:51 h   Hardesty, Greg *Foothill Ranch, CA   USA  1963 M 4 M45  1 8.733 8:24:03 h
6 9:47:44 h   Hassett, Paul *San Diego, CA   USA  1974 M 5 M35  1 8.215 9:40:48 h
7 9:50:11 h   Simpson-Hall, Beth *Chicago, IL   USA  1958 W 2 W50  1 8.181 8:19:39 h
8 9:51:52 h   Sytsma, Tyler *Tempe, AZ   USA  1987 M 6 M23  1 8.157 9:51:52 h
9 10:03:55 h   Lopez, Marcel *Irvine, CA   USA  1984 M 7 M23  2 7.995 10:03:55 h
10 10:06:22 h   Chrisman, Eric *Fresno, CA   USA  1984 M 8 M23  3 7.962 10:06:22 h
11 10:08:06 h   Long, Brian *San Diego, CA   USA  1979 M 9 M23  4 7.940 10:07:59 h
12 10:14:38 h   Langstaff, Anne *Alpine, CA   USA  1961 W 3 W50  2 7.855 9:00:38 h
13 10:18:10 h   Cordner, Geoffrey *Los Angeles, CA   USA  1960 M 10 M50  1 7.810 9:09:11 h
14 10:26:02 h   Dewez, Jon *Newport Beach, CA   USA  1979 M 11 M23  5 7.712 10:25:55 h
15 10:29:19 h   Webb, Steve *Phoenix, AZ   USA  1973 M 12 M35  2 7.672 10:19:04 h
16 10:37:41 h   Hine, Todd *Las Vegas, NV   USA  1967 M 13 M40  3 7.571 10:01:13 h
17 10:44:57 h   Wang, Raymond *San Diego, CA   USA  1967 M 14 M40  4 7.486 10:08:04 h
18 10:47:08 h   Thomas, Tracy *Long Beach, CA   USA  1961 W 4 W50  3 7.461 9:29:14 h
19 10:58:10 h   Manfred, Kimberly *Irvine, CA   USA  1972 W 5 W35  1 7.336 10:42:11 h
20 11:08:08 h   Kochavi, Shiran *San Francisco, CA   USA  1969 M 15 M40  5 7.226 10:40:21 h
21 11:12:24 h   McFadden, Linda *Modesto, CA   USA  1962 W 6 W45  1 7.180 9:58:51 h
22 11:44:25 h   Mahoney, Ron *Vista, CA   USA  1967 M 16 M40  6 6.854 11:04:08 h
23 12:12:44 h   Senopole, Christopher *Huntington Beach, CA   USA  1990 M 17 MU23  1 6.589 12:12:44 h
24 12:12:44 h   Shatarsky, Adam *Huntington Beach, CA   USA  1983 M 18 M23  6 6.589 12:12:44 h
25 12:15:55 h   Buzzard, Aaron *Chicago, IL   USA  1980 M 19 M23  7 6.561 12:15:55 h
26 12:17:14 h   Aman, Dina *Lake Balboa, CA   USA  1972 W 7 W35  2 6.549 11:59:20 h
27 12:31:35 h   West, Michelle *Santa Monica, CA   USA  1972 W 8 W35  3 6.424 12:13:20 h
28 12:48:17 h   Chapman, Tom *Downey, CA   USA  1955 M 20 M55  2 6.284 10:52:40 h
29 13:06:34 h   Kovacevic, Andrew *San Diego, CA   USA  1966 M 21 M45  2 6.138 12:15:27 h
30 13:31:26 h   Andrade, Hwa-Ja *Cypress, CA   USA  1941 W 9 W70  1 5.950 8:55:14 h
31 13:31:28 h   Welch, Michael *San Diego, CA   USA  1965 M 22 M45  3 5.950 12:32:29 h
32 13:38:56 h   Rosales, Samuel *Monterey, CA   USA  1972 M 23 M35  3 5.896 13:21:15 h
33 13:50:42 h   Macias, Jesse *Chino, CA   USA  1958 M 24 M50  2 5.812 12:05:03 h
34 13:54:48 h   Thier, Liam *El Cajon, CA   USA  1979 M 25 M23  8 5.783 13:54:38 h
35 14:35:41 h   Dickey, William *Arcadia, CA   USA  1939 M 26 M70  1 5.513 10:33:39 h
36 14:37:50 h   Alvarez, Cheri *Sacramento, CA   USA  1962 W 10 W45  2 5.500 13:01:48 h
37 14:38:09 h   Liao, Ted *Monterey Park, CA   USA  1961 M 27 M50  3 5.498 13:06:55 h
38 15:20:27 h   White, Marina *Irvine, CA   USA  1986 W 11 W23  2 5.245 15:20:27 h
39 15:25:58 h   Newsom, Claudia *Rancho Palos Verdes, CA   USA  1950 W 12 W60  1 5.214 11:42:27 h
40 15:34:24 h   Spatz, Rachel *Scottsdale, AZ   USA  1990 W 13 WU23  1 5.167 15:34:24 h
41 15:57:54 h   McCaleb, Richard *Elgin, IL   USA  1973 M 28 M35  4 5.040 15:42:18 h
42 16:10:01 h   Velasco, George *Alhambra, CA   USA  1953 M 29 M55  3 4.977 13:28:54 h
43 16:20:18 h   Campbell, Michael *Rancho Palos Verdes, CA   USA  1954 M 30 M55  4 4.925 13:45:08 h
44 16:48:06 h   Hernandez, Steve *Temple City, CA   USA  1967 M 31 M40  7 4.789 15:50:27 h
45 16:48:28 h   Rogers, Kevin *Yorba Linda, CA   USA  1959 M 32 M50  4 4.787 14:48:04 h
46 18:09:24 h   Spencer, Rick *Costa Mesa, CA   USA  1949 M 33 M60  1 4.432 14:34:35 h
47 18:09:25 h   Szikra, Lori *Laguna Niguel, CA   USA  1958 W 14 W50  4 4.432 15:22:19 h
48 18:10:28 h   Dennis, Vic *Carlsbad, CA   USA  1941 M 34 M70  2 4.427 13:27:30 h